sensor_id;sensor_type;location;lat;lon;timestamp;P1;durP1;ratioP1;P2;durP2;ratioP2
19842;SDS011;10082;51.038;6.992;2022-07-05T00:00:56;4.13;;;3.42;;
19842;SDS011;10082;51.038;6.992;2022-07-05T00:03:24;3.55;;;3.20;;
19842;SDS011;10082;51.038;6.992;2022-07-05T00:05:51;3.60;;;3.30;;
19842;SDS011;10082;51.038;6.992;2022-07-05T00:08:18;4.18;;;3.00;;
19842;SDS011;10082;51.038;6.992;2022-07-05T00:10:45;3.70;;;3.30;;
19842;SDS011;10082;51.038;6.992;2022-07-05T00:13:12;4.13;;;3.00;;
19842;SDS011;10082;51.038;6.992;2022-07-05T00:15:41;4.85;;;3.15;;
19842;SDS011;10082;51.038;6.992;2022-07-05T00:18:08;5.00;;;3.45;;
19842;SDS011;10082;51.038;6.992;2022-07-05T00:20:35;4.00;;;3.65;;
19842;SDS011;10082;51.038;6.992;2022-07-05T00:23:02;3.92;;;3.40;;
19842;SDS011;10082;51.038;6.992;2022-07-05T00:25:29;3.70;;;3.40;;
19842;SDS011;10082;51.038;6.992;2022-07-05T00:27:56;4.05;;;3.75;;
19842;SDS011;10082;51.038;6.992;2022-07-05T00:30:23;5.03;;;3.50;;
19842;SDS011;10082;51.038;6.992;2022-07-05T00:32:51;3.75;;;3.33;;
19842;SDS011;10082;51.038;6.992;2022-07-05T00:35:18;4.45;;;3.30;;
19842;SDS011;10082;51.038;6.992;2022-07-05T00:37:45;5.28;;;3.33;;
19842;SDS011;10082;51.038;6.992;2022-07-05T00:40:12;4.20;;;3.17;;
19842;SDS011;10082;51.038;6.992;2022-07-05T00:42:39;6.85;;;3.15;;
19842;SDS011;10082;51.038;6.992;2022-07-05T00:45:06;3.58;;;3.00;;
19842;SDS011;10082;51.038;6.992;2022-07-05T00:47:34;4.35;;;3.22;;
19842;SDS011;10082;51.038;6.992;2022-07-05T00:50:03;4.00;;;3.40;;
19842;SDS011;10082;51.038;6.992;2022-07-05T00:52:30;5.03;;;3.47;;
19842;SDS011;10082;51.038;6.992;2022-07-05T00:54:57;4.57;;;3.50;;
19842;SDS011;10082;51.038;6.992;2022-07-05T00:57:25;3.65;;;3.35;;
19842;SDS011;10082;51.038;6.992;2022-07-05T00:59:52;3.63;;;3.28;;
19842;SDS011;10082;51.038;6.992;2022-07-05T01:02:19;5.75;;;3.80;;
19842;SDS011;10082;51.038;6.992;2022-07-05T01:04:48;5.35;;;3.78;;
19842;SDS011;10082;51.038;6.992;2022-07-05T01:07:18;4.30;;;3.90;;
19842;SDS011;10082;51.038;6.992;2022-07-05T01:09:48;4.20;;;3.80;;
19842;SDS011;10082;51.038;6.992;2022-07-05T01:12:16;5.00;;;3.97;;
19842;SDS011;10082;51.038;6.992;2022-07-05T01:14:43;5.03;;;3.90;;
19842;SDS011;10082;51.038;6.992;2022-07-05T01:17:11;5.68;;;4.10;;
19842;SDS011;10082;51.038;6.992;2022-07-05T01:19:38;5.05;;;3.80;;
19842;SDS011;10082;51.038;6.992;2022-07-05T01:22:05;5.20;;;3.97;;
19842;SDS011;10082;51.038;6.992;2022-07-05T01:24:45;5.05;;;4.07;;
19842;SDS011;10082;51.038;6.992;2022-07-05T01:27:12;4.20;;;3.80;;
19842;SDS011;10082;51.038;6.992;2022-07-05T01:29:40;4.65;;;4.35;;
19842;SDS011;10082;51.038;6.992;2022-07-05T01:32:07;4.78;;;4.38;;
19842;SDS011;10082;51.038;6.992;2022-07-05T01:34:36;4.38;;;3.97;;
19842;SDS011;10082;51.038;6.992;2022-07-05T01:37:04;5.25;;;4.65;;
19842;SDS011;10082;51.038;6.992;2022-07-05T01:39:31;5.38;;;4.75;;
19842;SDS011;10082;51.038;6.992;2022-07-05T01:42:00;5.03;;;4.53;;
19842;SDS011;10082;51.038;6.992;2022-07-05T01:44:27;4.60;;;4.20;;
19842;SDS011;10082;51.038;6.992;2022-07-05T01:46:56;4.80;;;4.22;;
19842;SDS011;10082;51.038;6.992;2022-07-05T01:49:28;4.88;;;4.45;;
19842;SDS011;10082;51.038;6.992;2022-07-05T01:52:02;4.45;;;4.05;;
19842;SDS011;10082;51.038;6.992;2022-07-05T01:54:34;4.75;;;4.22;;
19842;SDS011;10082;51.038;6.992;2022-07-05T01:57:02;5.75;;;4.40;;
19842;SDS011;10082;51.038;6.992;2022-07-05T01:59:31;4.90;;;4.47;;
19842;SDS011;10082;51.038;6.992;2022-07-05T02:01:59;6.10;;;4.68;;
19842;SDS011;10082;51.038;6.992;2022-07-05T02:04:26;4.80;;;4.40;;
19842;SDS011;10082;51.038;6.992;2022-07-05T02:06:54;5.07;;;4.68;;
19842;SDS011;10082;51.038;6.992;2022-07-05T02:09:21;4.28;;;3.95;;
19842;SDS011;10082;51.038;6.992;2022-07-05T02:11:49;4.70;;;4.28;;
19842;SDS011;10082;51.038;6.992;2022-07-05T02:14:17;4.25;;;3.83;;
19842;SDS011;10082;51.038;6.992;2022-07-05T02:16:45;4.82;;;4.43;;
19842;SDS011;10082;51.038;6.992;2022-07-05T02:19:12;4.45;;;4.05;;
19842;SDS011;10082;51.038;6.992;2022-07-05T02:21:41;4.20;;;3.88;;
19842;SDS011;10082;51.038;6.992;2022-07-05T02:24:12;4.80;;;4.03;;
19842;SDS011;10082;51.038;6.992;2022-07-05T02:26:48;5.75;;;4.20;;
19842;SDS011;10082;51.038;6.992;2022-07-05T02:29:18;4.13;;;3.72;;
19842;SDS011;10082;51.038;6.992;2022-07-05T02:31:46;3.90;;;3.60;;
19842;SDS011;10082;51.038;6.992;2022-07-05T02:34:13;3.83;;;3.42;;
19842;SDS011;10082;51.038;6.992;2022-07-05T02:36:40;4.50;;;4.10;;
19842;SDS011;10082;51.038;6.992;2022-07-05T02:39:10;4.35;;;3.75;;
19842;SDS011;10082;51.038;6.992;2022-07-05T02:41:37;3.78;;;3.45;;
19842;SDS011;10082;51.038;6.992;2022-07-05T02:44:04;3.92;;;3.33;;
19842;SDS011;10082;51.038;6.992;2022-07-05T02:46:33;3.95;;;3.53;;
19842;SDS011;10082;51.038;6.992;2022-07-05T02:49:02;4.57;;;3.75;;
19842;SDS011;10082;51.038;6.992;2022-07-05T02:51:32;3.67;;;3.30;;
19842;SDS011;10082;51.038;6.992;2022-07-05T02:54:00;3.80;;;3.45;;
19842;SDS011;10082;51.038;6.992;2022-07-05T02:56:29;3.97;;;3.63;;
19842;SDS011;10082;51.038;6.992;2022-07-05T02:58:57;4.53;;;3.85;;
19842;SDS011;10082;51.038;6.992;2022-07-05T03:01:26;4.75;;;3.70;;
19842;SDS011;10082;51.038;6.992;2022-07-05T03:03:56;4.10;;;3.33;;
19842;SDS011;10082;51.038;6.992;2022-07-05T03:06:26;4.18;;;3.33;;
19842;SDS011;10082;51.038;6.992;2022-07-05T03:08:53;4.85;;;4.35;;
19842;SDS011;10082;51.038;6.992;2022-07-05T03:11:19;5.40;;;4.22;;
19842;SDS011;10082;51.038;6.992;2022-07-05T03:13:47;5.57;;;3.90;;
19842;SDS011;10082;51.038;6.992;2022-07-05T03:16:14;4.20;;;3.90;;
19842;SDS011;10082;51.038;6.992;2022-07-05T03:18:41;4.72;;;4.25;;
19842;SDS011;10082;51.038;6.992;2022-07-05T03:21:11;4.65;;;4.07;;
19842;SDS011;10082;51.038;6.992;2022-07-05T03:23:37;4.57;;;3.97;;
19842;SDS011;10082;51.038;6.992;2022-07-05T03:26:04;4.30;;;3.90;;
19842;SDS011;10082;51.038;6.992;2022-07-05T03:28:32;5.47;;;4.80;;
19842;SDS011;10082;51.038;6.992;2022-07-05T03:30:59;4.35;;;3.95;;
19842;SDS011;10082;51.038;6.992;2022-07-05T03:33:28;4.82;;;4.30;;
19842;SDS011;10082;51.038;6.992;2022-07-05T03:35:58;6.20;;;4.15;;
19842;SDS011;10082;51.038;6.992;2022-07-05T03:38:27;6.53;;;4.57;;
19842;SDS011;10082;51.038;6.992;2022-07-05T03:40:54;4.07;;;3.78;;
19842;SDS011;10082;51.038;6.992;2022-07-05T03:43:23;5.25;;;4.28;;
19842;SDS011;10082;51.038;6.992;2022-07-05T03:45:50;5.25;;;4.20;;
19842;SDS011;10082;51.038;6.992;2022-07-05T03:48:20;5.50;;;4.60;;
19842;SDS011;10082;51.038;6.992;2022-07-05T03:50:48;4.68;;;4.28;;
19842;SDS011;10082;51.038;6.992;2022-07-05T03:53:16;5.38;;;4.32;;
19842;SDS011;10082;51.038;6.992;2022-07-05T03:55:44;4.82;;;3.95;;
19842;SDS011;10082;51.038;6.992;2022-07-05T03:58:12;4.88;;;4.38;;
19842;SDS011;10082;51.038;6.992;2022-07-05T04:00:40;4.63;;;4.10;;
19842;SDS011;10082;51.038;6.992;2022-07-05T04:03:11;4.93;;;3.78;;
19842;SDS011;10082;51.038;6.992;2022-07-05T04:05:38;3.90;;;3.53;;
19842;SDS011;10082;51.038;6.992;2022-07-05T04:08:07;4.55;;;3.50;;
19842;SDS011;10082;51.038;6.992;2022-07-05T04:10:39;4.90;;;3.70;;
19842;SDS011;10082;51.038;6.992;2022-07-05T04:13:08;4.05;;;3.30;;
19842;SDS011;10082;51.038;6.992;2022-07-05T04:15:35;3.75;;;3.40;;
19842;SDS011;10082;51.038;6.992;2022-07-05T04:18:03;3.83;;;3.50;;
19842;SDS011;10082;51.038;6.992;2022-07-05T04:20:34;4.43;;;3.20;;
19842;SDS011;10082;51.038;6.992;2022-07-05T04:23:03;3.50;;;3.20;;
19842;SDS011;10082;51.038;6.992;2022-07-05T04:25:30;4.32;;;3.40;;
19842;SDS011;10082;51.038;6.992;2022-07-05T04:28:08;3.95;;;3.38;;
19842;SDS011;10082;51.038;6.992;2022-07-05T04:30:37;3.47;;;3.17;;
19842;SDS011;10082;51.038;6.992;2022-07-05T04:33:07;3.85;;;3.20;;
19842;SDS011;10082;51.038;6.992;2022-07-05T04:35:35;4.18;;;3.45;;
19842;SDS011;10082;51.038;6.992;2022-07-05T04:38:03;5.70;;;3.10;;
19842;SDS011;10082;51.038;6.992;2022-07-05T04:40:31;4.15;;;3.15;;
19842;SDS011;10082;51.038;6.992;2022-07-05T04:42:58;3.20;;;2.90;;
19842;SDS011;10082;51.038;6.992;2022-07-05T04:45:26;3.60;;;3.20;;
19842;SDS011;10082;51.038;6.992;2022-07-05T04:47:54;4.97;;;2.92;;
19842;SDS011;10082;51.038;6.992;2022-07-05T04:50:23;3.13;;;2.83;;
19842;SDS011;10082;51.038;6.992;2022-07-05T04:52:51;2.92;;;2.70;;
19842;SDS011;10082;51.038;6.992;2022-07-05T04:55:17;4.97;;;3.33;;
19842;SDS011;10082;51.038;6.992;2022-07-05T04:57:44;4.05;;;3.13;;
19842;SDS011;10082;51.038;6.992;2022-07-05T05:00:12;3.58;;;2.90;;
19842;SDS011;10082;51.038;6.992;2022-07-05T05:02:41;3.00;;;2.70;;
19842;SDS011;10082;51.038;6.992;2022-07-05T05:05:08;2.92;;;2.70;;
19842;SDS011;10082;51.038;6.992;2022-07-05T05:07:35;3.47;;;2.92;;
19842;SDS011;10082;51.038;6.992;2022-07-05T05:10:05;3.22;;;2.83;;
19842;SDS011;10082;51.038;6.992;2022-07-05T05:12:32;3.47;;;2.92;;
19842;SDS011;10082;51.038;6.992;2022-07-05T05:14:59;4.57;;;2.85;;
19842;SDS011;10082;51.038;6.992;2022-07-05T05:17:33;3.78;;;2.72;;
19842;SDS011;10082;51.038;6.992;2022-07-05T05:20:03;3.22;;;2.67;;
19842;SDS011;10082;51.038;6.992;2022-07-05T05:22:31;3.38;;;2.92;;
19842;SDS011;10082;51.038;6.992;2022-07-05T05:24:58;6.13;;;2.70;;
19842;SDS011;10082;51.038;6.992;2022-07-05T05:27:25;3.08;;;2.60;;
19842;SDS011;10082;51.038;6.992;2022-07-05T05:29:52;3.25;;;2.50;;
19842;SDS011;10082;51.038;6.992;2022-07-05T05:32:19;2.50;;;2.30;;
19842;SDS011;10082;51.038;6.992;2022-07-05T05:34:46;2.90;;;2.35;;
19842;SDS011;10082;51.038;6.992;2022-07-05T05:37:14;2.83;;;2.60;;
19842;SDS011;10082;51.038;6.992;2022-07-05T05:39:41;3.72;;;2.28;;
19842;SDS011;10082;51.038;6.992;2022-07-05T05:42:08;2.05;;;1.88;;
19842;SDS011;10082;51.038;6.992;2022-07-05T05:44:35;2.50;;;1.80;;
19842;SDS011;10082;51.038;6.992;2022-07-05T05:47:02;5.53;;;2.33;;
19842;SDS011;10082;51.038;6.992;2022-07-05T05:49:30;3.38;;;2.00;;
19842;SDS011;10082;51.038;6.992;2022-07-05T05:51:56;3.35;;;2.05;;
19842;SDS011;10082;51.038;6.992;2022-07-05T05:54:25;2.35;;;2.00;;
19842;SDS011;10082;51.038;6.992;2022-07-05T05:56:51;2.10;;;1.90;;
19842;SDS011;10082;51.038;6.992;2022-07-05T05:59:18;1.92;;;1.83;;
19842;SDS011;10082;51.038;6.992;2022-07-05T06:01:45;2.33;;;2.08;;
19842;SDS011;10082;51.038;6.992;2022-07-05T06:04:12;3.40;;;2.00;;
19842;SDS011;10082;51.038;6.992;2022-07-05T06:06:38;2.63;;;2.03;;
19842;SDS011;10082;51.038;6.992;2022-07-05T06:09:05;3.10;;;1.88;;
19842;SDS011;10082;51.038;6.992;2022-07-05T06:11:33;4.78;;;1.77;;
19842;SDS011;10082;51.038;6.992;2022-07-05T06:14:00;4.28;;;2.05;;
19842;SDS011;10082;51.038;6.992;2022-07-05T06:16:27;2.72;;;1.70;;
19842;SDS011;10082;51.038;6.992;2022-07-05T06:18:54;2.05;;;1.88;;
19842;SDS011;10082;51.038;6.992;2022-07-05T06:21:21;1.85;;;1.75;;
19842;SDS011;10082;51.038;6.992;2022-07-05T06:23:48;2.72;;;2.03;;
19842;SDS011;10082;51.038;6.992;2022-07-05T06:26:14;3.90;;;2.10;;
19842;SDS011;10082;51.038;6.992;2022-07-05T06:28:42;2.83;;;2.00;;
19842;SDS011;10082;51.038;6.992;2022-07-05T06:31:09;3.55;;;2.08;;
19842;SDS011;10082;51.038;6.992;2022-07-05T06:33:36;2.55;;;2.35;;
19842;SDS011;10082;51.038;6.992;2022-07-05T06:36:03;4.15;;;1.90;;
19842;SDS011;10082;51.038;6.992;2022-07-05T06:38:30;2.38;;;1.95;;
19842;SDS011;10082;51.038;6.992;2022-07-05T06:40:56;3.47;;;1.80;;
19842;SDS011;10082;51.038;6.992;2022-07-05T06:43:25;4.65;;;1.45;;
19842;SDS011;10082;51.038;6.992;2022-07-05T06:46:01;2.40;;;2.08;;
19842;SDS011;10082;51.038;6.992;2022-07-05T06:48:28;2.15;;;1.95;;
19842;SDS011;10082;51.038;6.992;2022-07-05T06:50:55;4.53;;;1.88;;
19842;SDS011;10082;51.038;6.992;2022-07-05T06:53:22;1.73;;;1.60;;
19842;SDS011;10082;51.038;6.992;2022-07-05T06:55:49;3.28;;;1.90;;
19842;SDS011;10082;51.038;6.992;2022-07-05T06:58:16;1.98;;;1.83;;
19842;SDS011;10082;51.038;6.992;2022-07-05T07:00:43;2.83;;;2.30;;
19842;SDS011;10082;51.038;6.992;2022-07-05T07:03:11;3.08;;;2.63;;
19842;SDS011;10082;51.038;6.992;2022-07-05T07:05:38;2.50;;;2.30;;
19842;SDS011;10082;51.038;6.992;2022-07-05T07:08:05;2.10;;;1.95;;
19842;SDS011;10082;51.038;6.992;2022-07-05T07:10:49;2.50;;;2.00;;
19842;SDS011;10082;51.038;6.992;2022-07-05T07:13:16;2.35;;;1.90;;
19842;SDS011;10082;51.038;6.992;2022-07-05T07:15:44;2.20;;;2.00;;
19842;SDS011;10082;51.038;6.992;2022-07-05T07:18:14;4.13;;;2.30;;
19842;SDS011;10082;51.038;6.992;2022-07-05T07:20:41;3.70;;;2.00;;
19842;SDS011;10082;51.038;6.992;2022-07-05T07:23:08;2.20;;;1.85;;
19842;SDS011;10082;51.038;6.992;2022-07-05T07:25:35;5.53;;;2.20;;
19842;SDS011;10082;51.038;6.992;2022-07-05T07:28:02;3.63;;;1.88;;
19842;SDS011;10082;51.038;6.992;2022-07-05T07:30:30;2.30;;;2.00;;
19842;SDS011;10082;51.038;6.992;2022-07-05T07:32:56;4.88;;;2.50;;
19842;SDS011;10082;51.038;6.992;2022-07-05T07:35:25;2.53;;;2.30;;
19842;SDS011;10082;51.038;6.992;2022-07-05T07:37:52;2.95;;;2.20;;
19842;SDS011;10082;51.038;6.992;2022-07-05T07:40:18;2.65;;;2.03;;
19842;SDS011;10082;51.038;6.992;2022-07-05T07:42:45;3.20;;;1.90;;
19842;SDS011;10082;51.038;6.992;2022-07-05T07:45:12;4.68;;;2.35;;
19842;SDS011;10082;51.038;6.992;2022-07-05T07:47:39;4.70;;;2.20;;
19842;SDS011;10082;51.038;6.992;2022-07-05T07:50:06;2.78;;;2.40;;
19842;SDS011;10082;51.038;6.992;2022-07-05T07:52:35;3.75;;;2.38;;
19842;SDS011;10082;51.038;6.992;2022-07-05T07:55:03;3.78;;;2.50;;
19842;SDS011;10082;51.038;6.992;2022-07-05T07:57:31;2.70;;;2.28;;
19842;SDS011;10082;51.038;6.992;2022-07-05T07:59:58;3.72;;;2.55;;
19842;SDS011;10082;51.038;6.992;2022-07-05T08:02:25;3.58;;;2.80;;
19842;SDS011;10082;51.038;6.992;2022-07-05T08:04:51;4.80;;;2.30;;
19842;SDS011;10082;51.038;6.992;2022-07-05T08:07:18;2.72;;;1.92;;
19842;SDS011;10082;51.038;6.992;2022-07-05T08:09:47;3.78;;;2.42;;
19842;SDS011;10082;51.038;6.992;2022-07-05T08:12:14;4.80;;;2.00;;
19842;SDS011;10082;51.038;6.992;2022-07-05T08:14:40;1.85;;;1.70;;
19842;SDS011;10082;51.038;6.992;2022-07-05T08:17:08;3.10;;;1.90;;
19842;SDS011;10082;51.038;6.992;2022-07-05T08:19:35;2.42;;;2.17;;
19842;SDS011;10082;51.038;6.992;2022-07-05T08:22:20;3.42;;;2.00;;
19842;SDS011;10082;51.038;6.992;2022-07-05T08:24:49;2.72;;;1.85;;
19842;SDS011;10082;51.038;6.992;2022-07-05T08:27:16;2.33;;;2.13;;
19842;SDS011;10082;51.038;6.992;2022-07-05T08:29:43;3.25;;;2.42;;
19842;SDS011;10082;51.038;6.992;2022-07-05T08:32:10;2.45;;;2.05;;
19842;SDS011;10082;51.038;6.992;2022-07-05T08:34:37;2.63;;;1.80;;
19842;SDS011;10082;51.038;6.992;2022-07-05T08:37:03;5.95;;;1.98;;
19842;SDS011;10082;51.038;6.992;2022-07-05T08:39:31;2.40;;;2.05;;
19842;SDS011;10082;51.038;6.992;2022-07-05T08:41:59;3.20;;;2.22;;
19842;SDS011;10082;51.038;6.992;2022-07-05T08:44:27;2.78;;;2.58;;
19842;SDS011;10082;51.038;6.992;2022-07-05T08:46:58;6.18;;;3.30;;
19842;SDS011;10082;51.038;6.992;2022-07-05T08:49:29;6.25;;;5.25;;
19842;SDS011;10082;51.038;6.992;2022-07-05T08:51:58;6.80;;;4.82;;
19842;SDS011;10082;51.038;6.992;2022-07-05T08:54:30;6.05;;;4.53;;
19842;SDS011;10082;51.038;6.992;2022-07-05T08:56:57;6.53;;;4.22;;
19842;SDS011;10082;51.038;6.992;2022-07-05T08:59:25;5.10;;;3.95;;
19842;SDS011;10082;51.038;6.992;2022-07-05T09:01:52;4.70;;;4.00;;
19842;SDS011;10082;51.038;6.992;2022-07-05T09:04:21;3.60;;;3.30;;
19842;SDS011;10082;51.038;6.992;2022-07-05T09:06:50;4.70;;;2.90;;
19842;SDS011;10082;51.038;6.992;2022-07-05T09:09:21;3.85;;;2.70;;
19842;SDS011;10082;51.038;6.992;2022-07-05T09:11:49;6.43;;;4.93;;
19842;SDS011;10082;51.038;6.992;2022-07-05T09:14:20;5.03;;;3.50;;
19842;SDS011;10082;51.038;6.992;2022-07-05T09:16:53;4.50;;;2.78;;
19842;SDS011;10082;51.038;6.992;2022-07-05T09:19:20;2.53;;;2.25;;
19842;SDS011;10082;51.038;6.992;2022-07-05T09:21:47;3.55;;;2.30;;
19842;SDS011;10082;51.038;6.992;2022-07-05T09:24:14;3.08;;;2.40;;
19842;SDS011;10082;51.038;6.992;2022-07-05T09:26:41;3.72;;;2.15;;
19842;SDS011;10082;51.038;6.992;2022-07-05T09:29:10;3.75;;;3.10;;
19842;SDS011;10082;51.038;6.992;2022-07-05T09:31:39;4.57;;;3.40;;
19842;SDS011;10082;51.038;6.992;2022-07-05T09:34:08;3.40;;;3.10;;
19842;SDS011;10082;51.038;6.992;2022-07-05T09:39:34;5.30;;;2.85;;
19842;SDS011;10082;51.038;6.992;2022-07-05T09:42:12;6.68;;;2.47;;
19842;SDS011;10082;51.038;6.992;2022-07-05T09:44:43;4.05;;;2.22;;
19842;SDS011;10082;51.038;6.992;2022-07-05T09:47:11;2.25;;;2.05;;
19842;SDS011;10082;51.038;6.992;2022-07-05T09:49:42;2.47;;;1.83;;
19842;SDS011;10082;51.038;6.992;2022-07-05T09:52:11;3.53;;;2.75;;
19842;SDS011;10082;51.038;6.992;2022-07-05T09:54:59;2.95;;;1.92;;
19842;SDS011;10082;51.038;6.992;2022-07-05T09:57:27;2.00;;;1.80;;
19842;SDS011;10082;51.038;6.992;2022-07-05T09:59:57;2.63;;;1.90;;
19842;SDS011;10082;51.038;6.992;2022-07-05T10:02:33;3.00;;;1.88;;
19842;SDS011;10082;51.038;6.992;2022-07-05T10:05:08;2.10;;;1.85;;
19842;SDS011;10082;51.038;6.992;2022-07-05T10:07:36;2.15;;;1.80;;
19842;SDS011;10082;51.038;6.992;2022-07-05T10:10:06;3.38;;;2.00;;
19842;SDS011;10082;51.038;6.992;2022-07-05T10:12:35;4.70;;;2.00;;
19842;SDS011;10082;51.038;6.992;2022-07-05T10:15:03;2.28;;;1.90;;
19842;SDS011;10082;51.038;6.992;2022-07-05T10:17:47;2.20;;;1.98;;
19842;SDS011;10082;51.038;6.992;2022-07-05T10:20:19;2.30;;;1.92;;
19842;SDS011;10082;51.038;6.992;2022-07-05T10:22:51;1.95;;;1.80;;
19842;SDS011;10082;51.038;6.992;2022-07-05T10:25:19;3.38;;;1.92;;
19842;SDS011;10082;51.038;6.992;2022-07-05T10:27:47;2.50;;;1.90;;
19842;SDS011;10082;51.038;6.992;2022-07-05T10:30:14;2.40;;;2.15;;
19842;SDS011;10082;51.038;6.992;2022-07-05T10:32:43;1.75;;;1.65;;
19842;SDS011;10082;51.038;6.992;2022-07-05T10:35:12;2.63;;;1.80;;
19842;SDS011;10082;51.038;6.992;2022-07-05T10:37:39;2.28;;;2.05;;
19842;SDS011;10082;51.038;6.992;2022-07-05T10:40:06;2.90;;;1.88;;
19842;SDS011;10082;51.038;6.992;2022-07-05T10:42:36;3.38;;;1.73;;
19842;SDS011;10082;51.038;6.992;2022-07-05T10:45:24;2.92;;;1.77;;
19842;SDS011;10082;51.038;6.992;2022-07-05T10:48:17;2.28;;;1.85;;
19842;SDS011;10082;51.038;6.992;2022-07-05T10:50:47;3.28;;;1.80;;
19842;SDS011;10082;51.038;6.992;2022-07-05T10:53:16;2.10;;;2.00;;
19842;SDS011;10082;51.038;6.992;2022-07-05T10:55:54;2.67;;;2.20;;
19842;SDS011;10082;51.038;6.992;2022-07-05T10:58:27;3.20;;;2.30;;
19842;SDS011;10082;51.038;6.992;2022-07-05T11:04:25;2.75;;;2.28;;
19842;SDS011;10082;51.038;6.992;2022-07-05T11:07:01;2.13;;;1.92;;
19842;SDS011;10082;51.038;6.992;2022-07-05T11:09:28;4.60;;;2.10;;
19842;SDS011;10082;51.038;6.992;2022-07-05T11:14:47;3.30;;;2.08;;
19842;SDS011;10082;51.038;6.992;2022-07-05T11:17:19;3.78;;;2.30;;
19842;SDS011;10082;51.038;6.992;2022-07-05T11:19:58;2.88;;;2.13;;
19842;SDS011;10082;51.038;6.992;2022-07-05T11:22:28;2.83;;;2.10;;
19842;SDS011;10082;51.038;6.992;2022-07-05T11:24:56;2.42;;;2.00;;
19842;SDS011;10082;51.038;6.992;2022-07-05T11:27:23;2.47;;;2.20;;
19842;SDS011;10082;51.038;6.992;2022-07-05T11:29:51;2.47;;;1.83;;
19842;SDS011;10082;51.038;6.992;2022-07-05T11:32:19;3.53;;;2.42;;
19842;SDS011;10082;51.038;6.992;2022-07-05T11:34:48;3.72;;;1.90;;
19842;SDS011;10082;51.038;6.992;2022-07-05T11:37:18;3.28;;;2.00;;
19842;SDS011;10082;51.038;6.992;2022-07-05T11:42:53;2.90;;;2.20;;
19842;SDS011;10082;51.038;6.992;2022-07-05T11:45:20;3.05;;;2.00;;
19842;SDS011;10082;51.038;6.992;2022-07-05T11:47:47;2.72;;;1.80;;
19842;SDS011;10082;51.038;6.992;2022-07-05T11:50:14;2.15;;;1.67;;
19842;SDS011;10082;51.038;6.992;2022-07-05T11:52:40;2.95;;;1.60;;
19842;SDS011;10082;51.038;6.992;2022-07-05T11:55:09;2.88;;;1.60;;
19842;SDS011;10082;51.038;6.992;2022-07-05T11:57:37;3.50;;;1.55;;
19842;SDS011;10082;51.038;6.992;2022-07-05T12:00:14;2.30;;;1.30;;
19842;SDS011;10082;51.038;6.992;2022-07-05T12:02:52;1.60;;;1.25;;
19842;SDS011;10082;51.038;6.992;2022-07-05T12:05:18;3.00;;;1.30;;
19842;SDS011;10082;51.038;6.992;2022-07-05T12:07:48;3.30;;;1.42;;
19842;SDS011;10082;51.038;6.992;2022-07-05T12:10:16;1.58;;;1.30;;
19842;SDS011;10082;51.038;6.992;2022-07-05T12:13:05;1.83;;;1.52;;
19842;SDS011;10082;51.038;6.992;2022-07-05T12:15:33;4.03;;;1.83;;
19842;SDS011;10082;51.038;6.992;2022-07-05T12:18:01;2.05;;;1.50;;
19842;SDS011;10082;51.038;6.992;2022-07-05T12:20:30;3.22;;;1.67;;
19842;SDS011;10082;51.038;6.992;2022-07-05T12:22:57;2.53;;;1.55;;
19842;SDS011;10082;51.038;6.992;2022-07-05T12:25:27;1.70;;;1.60;;
19842;SDS011;10082;51.038;6.992;2022-07-05T12:27:56;2.33;;;1.60;;
19842;SDS011;10082;51.038;6.992;2022-07-05T12:30:24;3.78;;;2.08;;
19842;SDS011;10082;51.038;6.992;2022-07-05T12:32:58;2.10;;;1.67;;
19842;SDS011;10082;51.038;6.992;2022-07-05T12:35:26;1.85;;;1.60;;
19842;SDS011;10082;51.038;6.992;2022-07-05T12:38:01;2.50;;;1.52;;
19842;SDS011;10082;51.038;6.992;2022-07-05T12:40:30;1.60;;;1.50;;
19842;SDS011;10082;51.038;6.992;2022-07-05T12:43:04;2.30;;;1.90;;
19842;SDS011;10082;51.038;6.992;2022-07-05T12:45:32;2.80;;;1.63;;
19842;SDS011;10082;51.038;6.992;2022-07-05T12:48:00;3.10;;;1.90;;
19842;SDS011;10082;51.038;6.992;2022-07-05T12:50:29;1.90;;;1.73;;
19842;SDS011;10082;51.038;6.992;2022-07-05T12:53:04;6.28;;;1.77;;
19842;SDS011;10082;51.038;6.992;2022-07-05T12:55:47;1.70;;;1.60;;
19842;SDS011;10082;51.038;6.992;2022-07-05T12:58:32;2.55;;;1.73;;
19842;SDS011;10082;51.038;6.992;2022-07-05T13:00:58;4.78;;;2.08;;
19842;SDS011;10082;51.038;6.992;2022-07-05T13:03:25;3.08;;;1.70;;
19842;SDS011;10082;51.038;6.992;2022-07-05T13:06:01;3.33;;;1.90;;
19842;SDS011;10082;51.038;6.992;2022-07-05T13:08:28;2.75;;;1.90;;
19842;SDS011;10082;51.038;6.992;2022-07-05T13:10:57;3.90;;;1.85;;
19842;SDS011;10082;51.038;6.992;2022-07-05T13:13:23;3.05;;;1.70;;
19842;SDS011;10082;51.038;6.992;2022-07-05T13:15:50;2.25;;;1.90;;
19842;SDS011;10082;51.038;6.992;2022-07-05T13:18:23;1.80;;;1.70;;
19842;SDS011;10082;51.038;6.992;2022-07-05T13:20:51;1.77;;;1.50;;
19842;SDS011;10082;51.038;6.992;2022-07-05T13:23:18;3.05;;;1.85;;
19842;SDS011;10082;51.038;6.992;2022-07-05T13:25:45;2.10;;;1.50;;
19842;SDS011;10082;51.038;6.992;2022-07-05T13:28:13;2.88;;;1.58;;
19842;SDS011;10082;51.038;6.992;2022-07-05T13:30:39;1.95;;;1.70;;
19842;SDS011;10082;51.038;6.992;2022-07-05T13:33:06;2.92;;;1.73;;
19842;SDS011;10082;51.038;6.992;2022-07-05T13:35:33;1.83;;;1.67;;
19842;SDS011;10082;51.038;6.992;2022-07-05T13:37:59;4.18;;;2.08;;
19842;SDS011;10082;51.038;6.992;2022-07-05T13:40:26;4.00;;;2.42;;
19842;SDS011;10082;51.038;6.992;2022-07-05T13:42:53;3.55;;;1.80;;
19842;SDS011;10082;51.038;6.992;2022-07-05T13:45:21;1.85;;;1.48;;
19842;SDS011;10082;51.038;6.992;2022-07-05T13:47:47;1.77;;;1.67;;
19842;SDS011;10082;51.038;6.992;2022-07-05T13:50:14;2.53;;;1.60;;
19842;SDS011;10082;51.038;6.992;2022-07-05T13:53:00;1.88;;;1.73;;
19842;SDS011;10082;51.038;6.992;2022-07-05T13:55:27;2.30;;;1.90;;
19842;SDS011;10082;51.038;6.992;2022-07-05T13:57:54;2.55;;;1.77;;
19842;SDS011;10082;51.038;6.992;2022-07-05T14:00:24;3.92;;;1.70;;
19842;SDS011;10082;51.038;6.992;2022-07-05T14:02:51;2.30;;;1.80;;
19842;SDS011;10082;51.038;6.992;2022-07-05T14:05:18;2.15;;;1.70;;
19842;SDS011;10082;51.038;6.992;2022-07-05T14:07:46;2.42;;;1.90;;
19842;SDS011;10082;51.038;6.992;2022-07-05T14:10:13;3.28;;;1.92;;
19842;SDS011;10082;51.038;6.992;2022-07-05T14:12:40;1.80;;;1.67;;
19842;SDS011;10082;51.038;6.992;2022-07-05T14:15:07;1.73;;;1.50;;
19842;SDS011;10082;51.038;6.992;2022-07-05T14:17:36;3.00;;;1.83;;
19842;SDS011;10082;51.038;6.992;2022-07-05T14:20:03;3.60;;;1.95;;
19842;SDS011;10082;51.038;6.992;2022-07-05T14:22:30;2.47;;;1.73;;
19842;SDS011;10082;51.038;6.992;2022-07-05T14:24:57;3.20;;;1.77;;
19842;SDS011;10082;51.038;6.992;2022-07-05T14:27:23;3.10;;;1.70;;
19842;SDS011;10082;51.038;6.992;2022-07-05T14:29:50;2.55;;;1.70;;
19842;SDS011;10082;51.038;6.992;2022-07-05T14:32:17;2.95;;;1.77;;
19842;SDS011;10082;51.038;6.992;2022-07-05T14:34:45;3.47;;;1.50;;
19842;SDS011;10082;51.038;6.992;2022-07-05T14:37:11;3.63;;;1.77;;
19842;SDS011;10082;51.038;6.992;2022-07-05T14:39:39;2.83;;;1.73;;
19842;SDS011;10082;51.038;6.992;2022-07-05T14:42:06;4.35;;;1.92;;
19842;SDS011;10082;51.038;6.992;2022-07-05T14:44:33;2.95;;;1.60;;
19842;SDS011;10082;51.038;6.992;2022-07-05T14:46:59;2.90;;;1.70;;
19842;SDS011;10082;51.038;6.992;2022-07-05T14:49:26;7.07;;;2.28;;
19842;SDS011;10082;51.038;6.992;2022-07-05T14:51:54;12.90;;;2.60;;
19842;SDS011;10082;51.038;6.992;2022-07-05T14:54:21;6.30;;;2.00;;
19842;SDS011;10082;51.038;6.992;2022-07-05T14:56:48;2.95;;;1.88;;
19842;SDS011;10082;51.038;6.992;2022-07-05T14:59:15;2.15;;;1.60;;
19842;SDS011;10082;51.038;6.992;2022-07-05T15:01:42;3.28;;;2.00;;
19842;SDS011;10082;51.038;6.992;2022-07-05T15:04:09;3.38;;;1.85;;
19842;SDS011;10082;51.038;6.992;2022-07-05T15:06:35;2.85;;;1.73;;
19842;SDS011;10082;51.038;6.992;2022-07-05T15:09:03;1.65;;;1.55;;